Time;durP1;ratioP1;P1;durP2;ratioP2;P2;SDS_P1;SDS_P2;PMS_P1;PMS_P2;Temp;Humidity;BMP_temperature;BMP_pressure;BME280_temperature;BME280_humidity;BME280_pressure;Samples;Min_cycle;Max_cycle;Signal;HPM_P1;HPM_P2
2023/05/31 00:02:16;;;;;;;15.60;11.27;;;;;;;18.11;85.45;99428.44;5031415;28;20036;-78
2023/05/31 00:04:42;;;;;;;15.02;10.07;;;;;;;18.05;85.59;99422.31;5031565;28;20087;-77
2023/05/31 00:07:07;;;;;;;11.25;9.63;;;;;;;18.16;84.90;99435.75;5031192;28;20021;-78
2023/05/31 00:09:33;;;;;;;13.70;10.38;;;;;;;17.97;84.98;99420.56;5028155;28;20052;-77
2023/05/31 00:11:59;;;;;;;14.27;10.77;;;;;;;17.71;86.92;99436.41;5031063;28;20037;-77
2023/05/31 00:14:24;;;;;;;21.90;12.95;;;;;;;17.38;89.35;99435.19;5030211;28;20029;-78
2023/05/31 00:16:50;;;;;;;15.52;11.07;;;;;;;17.52;88.28;99421.25;5031026;28;20071;-78
2023/05/31 00:19:15;;;;;;;16.55;11.88;;;;;;;17.65;87.61;99435.16;5031368;28;20038;-77
2023/05/31 00:21:43;;;;;;;14.55;10.48;;;;;;;17.68;87.10;99442.84;5031072;28;20108;-77
2023/05/31 00:24:08;;;;;;;13.73;10.45;;;;;;;17.70;86.60;99434.78;5027645;28;20179;-77
2023/05/31 00:26:34;;;;;;;13.63;11.48;;;;;;;17.69;86.70;99441.66;5026316;28;20029;-77
2023/05/31 00:28:59;;;;;;;15.43;10.32;;;;;;;17.79;86.01;99438.16;5031177;28;20049;-77
2023/05/31 00:31:25;;;;;;;20.42;12.07;;;;;;;17.75;86.00;99448.63;5030936;28;20056;-77
2023/05/31 00:33:50;;;;;;;12.50;10.15;;;;;;;17.68;86.16;99451.34;5030196;28;20104;-78
2023/05/31 00:36:16;;;;;;;15.98;10.45;;;;;;;17.60;86.67;99444.78;5031086;28;20029;-77
2023/05/31 00:38:41;;;;;;;12.60;9.57;;;;;;;17.53;86.85;99448.31;5030996;28;20475;-77
2023/05/31 00:41:09;;;;;;;19.42;10.95;;;;;;;17.25;87.79;99446.72;5029736;28;20049;-77
2023/05/31 00:43:35;;;;;;;13.93;11.00;;;;;;;17.07;89.61;99449.25;5029889;28;20443;-77
2023/05/31 00:46:01;;;;;;;13.77;11.02;;;;;;;17.10;89.70;99451.34;5030863;28;20029;-77
2023/05/31 00:48:26;;;;;;;13.32;9.88;;;;;;;17.24;89.31;99453.56;5029519;28;20039;-77
2023/05/31 00:50:52;;;;;;;13.75;10.10;;;;;;;17.38;88.25;99449.34;5030142;28;20017;-73
2023/05/31 00:53:18;;;;;;;13.20;10.77;;;;;;;17.37;88.49;99444.84;5031091;28;20488;-73
2023/05/31 00:55:44;;;;;;;14.75;11.75;;;;;;;17.49;88.00;99447.44;5028236;28;20021;-73
2023/05/31 00:58:10;;;;;;;16.98;11.02;;;;;;;17.45;88.17;99457.91;5028346;28;20076;-73
2023/05/31 01:00:36;;;;;;;13.40;10.63;;;;;;;17.49;88.11;99450.28;5030775;28;20030;-73
2023/05/31 01:03:02;;;;;;;17.80;10.57;;;;;;;17.36;88.02;99451.69;5030872;28;20047;-73
2023/05/31 01:05:28;;;;;;;14.52;10.65;;;;;;;17.23;89.16;99449.09;5030941;28;20076;-73
2023/05/31 01:07:54;;;;;;;13.57;10.50;;;;;;;17.07;90.04;99446.44;5028234;28;20069;-73
2023/05/31 01:10:20;;;;;;;15.95;11.00;;;;;;;17.07;90.50;99445.63;5030619;28;20033;-73
2023/05/31 01:12:55;;;;;;;15.25;10.48;;;;;;;17.19;90.48;99453.91;5030863;28;20423;-73
2023/05/31 01:15:32;;;;;;;16.67;11.45;;;;;;;17.10;90.69;99445.69;5034412;28;20029;-73
2023/05/31 01:18:19;;;;;;;17.45;12.10;;;;;;;16.95;91.56;99455.94;5033180;28;20056;-73
2023/05/31 01:20:49;;;;;;;17.00;12.43;;;;;;;16.95;91.80;99458.75;5034386;28;20420;-73
2023/05/31 01:23:33;;;;;;;14.45;11.70;;;;;;;16.94;91.85;99454.28;5034527;28;20025;-73
2023/05/31 01:26:13;;;;;;;20.58;12.35;;;;;;;16.92;91.74;99459.50;5033276;28;20163;-73
2023/05/31 01:28:41;;;;;;;17.38;12.38;;;;;;;16.92;91.65;99462.34;5032165;28;20025;-73
2023/05/31 01:31:08;;;;;;;17.70;11.73;;;;;;;16.70;93.36;99456.31;5033954;28;20037;-73
2023/05/31 01:33:35;;;;;;;14.23;11.70;;;;;;;16.70;93.77;99461.97;5031525;28;20106;-74
2023/05/31 01:36:01;;;;;;;17.40;11.70;;;;;;;16.66;93.90;99460.28;5034292;28;20116;-73
2023/05/31 01:38:26;;;;;;;17.13;11.35;;;;;;;16.57;94.10;99460.53;5033969;28;20168;-73
2023/05/31 01:40:55;;;;;;;12.27;10.20;;;;;;;16.75;93.21;99458.03;5031867;28;20032;-74
2023/05/31 01:43:21;;;;;;;13.45;11.35;;;;;;;16.59;93.79;99458.16;5034175;28;20036;-73
2023/05/31 01:45:47;;;;;;;17.42;11.82;;;;;;;16.54;94.27;99450.00;5034012;28;20025;-73
2023/05/31 01:48:13;;;;;;;15.15;11.43;;;;;;;16.59;94.44;99449.69;5032164;28;20056;-73
2023/05/31 01:50:40;;;;;;;17.13;11.52;;;;;;;16.47;94.79;99449.84;5033698;28;20112;-73
2023/05/31 01:53:06;;;;;;;12.27;10.65;;;;;;;16.58;94.51;99448.03;5034022;28;20030;-73
2023/05/31 01:55:32;;;;;;;15.73;11.65;;;;;;;16.73;94.50;99454.75;5033850;28;20021;-73
2023/05/31 01:57:58;;;;;;;13.98;10.38;;;;;;;16.82;93.55;99449.66;5032486;28;20052;-74
2023/05/31 02:00:25;;;;;;;15.40;11.25;;;;;;;16.87;93.22;99454.16;5033669;28;20025;-74
2023/05/31 02:02:51;;;;;;;18.10;10.90;;;;;;;16.96;92.76;99453.94;5030107;28;20036;-73
2023/05/31 02:05:17;;;;;;;22.85;10.73;;;;;;;16.89;92.82;99453.81;5033768;28;20409;-73
2023/05/31 02:07:44;;;;;;;18.75;11.55;;;;;;;16.74;93.63;99455.56;5032074;28;20040;-73
2023/05/31 02:10:11;;;;;;;18.63;13.35;;;;;;;16.09;98.98;99455.19;5033618;28;20026;-73
2023/05/31 02:12:37;;;;;;;24.77;13.95;;;;;;;15.34;100.00;99455.22;5032013;28;20061;-73
2023/05/31 02:15:03;;;;;;;16.55;13.00;;;;;;;15.23;100.00;99458.63;5032006;28;20466;-73
2023/05/31 02:17:32;;;;;;;17.63;13.02;;;;;;;15.35;100.00;99452.03;5032344;28;20025;-73
2023/05/31 02:19:58;;;;;;;19.20;13.55;;;;;;;15.10;100.00;99460.72;5032425;28;20037;-73
2023/05/31 02:22:24;;;;;;;20.70;13.73;;;;;;;15.28;100.00;99454.72;5032064;28;20416;-73
2023/05/31 02:24:50;;;;;;;15.50;11.65;;;;;;;15.55;100.00;99464.16;5033347;28;20082;-73
2023/05/31 02:27:15;;;;;;;15.13;11.80;;;;;;;15.77;100.00;99456.16;5033489;28;20025;-74
2023/05/31 02:29:41;;;;;;;22.63;11.93;;;;;;;15.80;99.08;99455.41;5033218;28;20026;-73
2023/05/31 02:32:07;;;;;;;19.35;12.15;;;;;;;15.91;98.93;99466.13;5031711;28;20036;-74
2023/05/31 02:34:33;;;;;;;18.48;12.27;;;;;;;15.83;98.33;99463.16;5033248;28;20519;-74
2023/05/31 02:37:00;;;;;;;14.82;11.13;;;;;;;15.74;98.50;99462.53;5032118;28;20026;-73
2023/05/31 02:39:25;;;;;;;17.75;11.20;;;;;;;15.90;98.24;99470.13;5033067;28;20030;-73
2023/05/31 02:41:51;;;;;;;18.05;12.25;;;;;;;16.01;97.59;99459.88;5032914;28;20480;-73
2023/05/31 02:44:16;;;;;;;26.63;12.10;;;;;;;16.04;96.98;99466.78;5033038;28;20499;-73
2023/05/31 02:46:42;;;;;;;13.60;11.05;;;;;;;16.09;96.16;99472.13;5031631;28;20075;-73
2023/05/31 02:49:07;;;;;;;20.88;11.20;;;;;;;15.95;97.04;99470.66;5031842;28;20147;-73
2023/05/31 02:51:33;;;;;;;31.50;12.80;;;;;;;15.91;98.18;99471.75;5032561;28;20420;-74
2023/05/31 02:53:58;;;;;;;24.92;11.35;;;;;;;16.13;97.37;99473.03;5031679;28;20413;-73
2023/05/31 02:56:26;;;;;;;21.60;11.85;;;;;;;16.14;96.74;99474.66;5031384;28;20026;-74
2023/05/31 02:58:51;;;;;;;16.08;11.13;;;;;;;16.08;97.14;99476.97;5032695;28;20029;-73
2023/05/31 03:01:17;;;;;;;18.67;11.52;;;;;;;16.22;96.99;99478.44;5032521;28;20021;-73
2023/05/31 03:03:44;;;;;;;18.92;12.38;;;;;;;16.18;97.55;99481.19;5031267;28;20120;-73
2023/05/31 03:06:12;;;;;;;19.45;12.02;;;;;;;16.06;98.13;99481.34;5032722;28;20065;-73
2023/05/31 03:08:37;;;;;;;22.08;12.77;;;;;;;15.81;100.00;99479.63;5030252;28;20481;-74
2023/05/31 03:11:03;;;;;;;16.27;12.27;;;;;;;15.59;100.00;99464.22;5031324;28;20036;-74
2023/05/31 03:13:28;;;;;;;33.85;14.18;;;;;;;15.64;100.00;99474.41;5032538;28;20127;-73
2023/05/31 03:15:54;;;;;;;22.77;13.88;;;;;;;15.62;100.00;99471.13;5032016;28;20424;-73
2023/05/31 03:18:20;;;;;;;24.67;13.63;;;;;;;15.63;100.00;99467.13;5031531;28;20041;-73
2023/05/31 03:20:45;;;;;;;25.65;14.65;;;;;;;15.58;100.00;99468.25;5031091;28;20037;-73
2023/05/31 03:23:11;;;;;;;26.80;13.20;;;;;;;15.67;100.00;99468.00;5032349;28;20026;-73
2023/05/31 03:25:36;;;;;;;32.08;12.65;;;;;;;15.75;100.00;99475.44;5030959;28;20021;-73
2023/05/31 03:28:03;;;;;;;16.90;12.38;;;;;;;15.81;100.00;99485.25;5030908;28;20037;-73
2023/05/31 03:30:29;;;;;;;18.42;11.60;;;;;;;15.45;100.00;99490.13;5032232;28;20032;-73
2023/05/31 03:32:55;;;;;;;20.08;13.20;;;;;;;15.46;100.00;99482.47;5031642;28;20033;-73
2023/05/31 03:35:20;;;;;;;26.48;12.77;;;;;;;15.66;100.00;99480.47;5030354;28;20447;-73
2023/05/31 03:37:46;;;;;;;42.80;13.15;;;;;;;15.67;100.00;99474.47;5030846;28;20064;-73
2023/05/31 03:40:11;;;;;;;24.02;13.40;;;;;;;15.44;100.00;99482.81;5031892;28;20021;-73
2023/05/31 03:42:39;;;;;;;19.48;11.70;;;;;;;15.43;100.00;99484.00;5031622;28;20029;-73
2023/05/31 03:45:05;;;;;;;27.52;13.07;;;;;;;15.37;100.00;99482.66;5031613;28;20021;-73
2023/05/31 03:47:31;;;;;;;20.67;13.07;;;;;;;15.34;100.00;99483.41;5030864;28;20063;-73
2023/05/31 03:49:56;;;;;;;18.80;12.85;;;;;;;15.37;100.00;99485.50;5029279;28;20484;-74
2023/05/31 03:52:22;;;;;;;17.55;12.77;;;;;;;15.37;100.00;99483.47;5031449;28;20104;-74
2023/05/31 03:54:47;;;;;;;24.90;14.10;;;;;;;15.39;100.00;99485.94;5031734;28;20029;-74
2023/05/31 03:57:13;;;;;;;26.33;13.63;;;;;;;15.55;100.00;99489.50;5031514;28;20068;-73
2023/05/31 03:59:38;;;;;;;18.85;13.93;;;;;;;15.68;100.00;99486.56;5031637;28;20029;-73
2023/05/31 04:02:04;;;;;;;22.33;12.88;;;;;;;15.72;100.00;99484.66;5030478;28;20484;-74
2023/05/31 04:04:30;;;;;;;21.98;12.60;;;;;;;15.62;100.00;99477.56;5030372;28;20604;-74
2023/05/31 04:06:55;;;;;;;15.57;12.85;;;;;;;15.73;100.00;99480.66;5031647;28;20026;-73
2023/05/31 04:09:21;;;;;;;22.48;12.40;;;;;;;15.70;100.00;99487.03;5030059;28;20022;-73
2023/05/31 04:11:49;;;;;;;22.40;11.45;;;;;;;15.70;100.00;99482.19;5028410;28;20029;-73
2023/05/31 04:14:15;;;;;;;17.95;11.38;;;;;;;15.72;100.00;99488.28;5029306;28;20033;-73
2023/05/31 04:16:41;;;;;;;16.83;11.80;;;;;;;15.87;100.00;99488.59;5029115;28;20492;-73
2023/05/31 04:19:06;;;;;;;19.08;11.73;;;;;;;15.91;100.00;99489.50;5029360;28;20412;-73
2023/05/31 04:21:32;;;;;;;17.67;12.07;;;;;;;16.01;100.00;99485.28;5029738;28;20552;-74
2023/05/31 04:23:58;;;;;;;20.88;12.00;;;;;;;15.77;100.00;99480.72;5031212;28;20026;-74
2023/05/31 04:26:24;;;;;;;13.82;11.23;;;;;;;16.04;100.00;99495.00;5032404;28;20029;-74
2023/05/31 04:28:53;;;;;;;16.75;11.90;;;;;;;15.87;100.00;99494.25;5029831;28;20521;-73
2023/05/31 04:31:19;;;;;;;18.05;10.88;;;;;;;15.54;100.00;99485.06;5027752;28;20051;-74
2023/05/31 04:33:45;;;;;;;19.48;11.82;;;;;;;15.57;100.00;99491.97;5022766;28;20034;-73
2023/05/31 04:36:10;;;;;;;16.33;11.82;;;;;;;15.52;100.00;99487.44;5023761;28;20574;-73
2023/05/31 04:38:36;;;;;;;16.85;10.55;;;;;;;15.86;100.00;99486.94;5026364;28;20076;-74
2023/05/31 04:41:03;;;;;;;14.07;11.15;;;;;;;15.76;100.00;99494.00;5028975;28;20104;-74
2023/05/31 04:43:29;;;;;;;19.65;11.63;;;;;;;15.84;100.00;99495.78;5029145;28;20025;-74
2023/05/31 04:45:55;;;;;;;20.23;12.45;;;;;;;15.85;100.00;99490.94;5028436;28;20037;-74
2023/05/31 04:48:21;;;;;;;37.25;21.92;;;;;;;15.92;100.00;99496.78;5031005;28;20064;-74
2023/05/31 04:50:48;;;;;;;37.60;33.70;;;;;;;16.19;100.00;99516.66;5032917;28;20060;-74
2023/05/31 04:53:14;;;;;;;21.50;13.80;;;;;;;15.91;100.00;99505.59;5033856;28;20447;-74
2023/05/31 04:55:40;;;;;;;21.38;12.48;;;;;;;15.92;100.00;99510.88;5034836;28;20056;-74
2023/05/31 04:58:07;;;;;;;23.45;11.75;;;;;;;15.63;100.00;99512.25;5030541;28;20386;-74
2023/05/31 05:00:34;;;;;;;20.25;13.18;;;;;;;15.52;100.00;99512.81;5033720;28;20021;-74
2023/05/31 05:03:00;;;;;;;23.13;13.23;;;;;;;15.63;100.00;99518.72;5034983;28;20108;-74
2023/05/31 05:05:26;;;;;;;23.45;11.93;;;;;;;15.64;100.00;99517.53;5034929;28;20455;-74
2023/05/31 05:07:51;;;;;;;18.42;12.52;;;;;;;15.82;100.00;99529.19;5031764;28;20030;-74
2023/05/31 05:10:17;;;;;;;15.70;12.38;;;;;;;15.80;100.00;99525.09;5032761;28;20029;-74
2023/05/31 05:12:42;;;;;;;23.40;11.40;;;;;;;15.78;100.00;99533.13;5032516;28;20030;-74
2023/05/31 05:15:09;;;;;;;18.60;11.50;;;;;;;15.87;100.00;99539.38;5033276;28;20056;-74
2023/05/31 05:17:36;;;;;;;18.10;11.80;;;;;;;16.00;100.00;99531.59;5031906;28;20039;-75
2023/05/31 05:20:03;;;;;;;21.55;12.07;;;;;;;15.99;100.00;99541.25;5033370;28;20096;-75
2023/05/31 05:22:28;;;;;;;21.33;11.43;;;;;;;16.14;100.00;99543.19;5034780;28;20036;-76
2023/05/31 05:24:53;;;;;;;15.57;11.13;;;;;;;16.25;100.00;99551.06;5032415;28;20034;-74
2023/05/31 05:27:21;;;;;;;15.32;11.60;;;;;;;16.39;100.00;99548.50;5031312;28;20029;-74
2023/05/31 05:29:47;;;;;;;13.77;11.20;;;;;;;16.46;100.00;99552.69;5022957;28;20056;-74
2023/05/31 05:32:12;;;;;;;17.00;11.10;;;;;;;16.50;100.00;99550.72;5024114;28;20408;-75
2023/05/31 05:34:38;;;;;;;19.05;12.23;;;;;;;16.63;100.00;99548.56;5018626;28;20105;-74
2023/05/31 05:37:03;;;;;;;18.95;10.57;;;;;;;16.74;100.00;99554.41;5026080;28;20087;-74
2023/05/31 05:39:29;;;;;;;14.95;11.30;;;;;;;16.87;100.00;99555.84;5024450;28;20485;-73
2023/05/31 05:41:57;;;;;;;17.55;11.70;;;;;;;17.08;100.00;99558.28;5029245;28;20033;-73
2023/05/31 05:44:23;;;;;;;16.38;10.95;;;;;;;17.02;100.00;99556.16;5026705;28;20492;-76
2023/05/31 05:46:48;;;;;;;17.52;11.80;;;;;;;16.89;100.00;99552.66;5025095;28;20030;-78
2023/05/31 05:49:14;;;;;;;18.85;10.75;;;;;;;17.09;100.00;99559.91;5010330;28;20034;-77
2023/05/31 05:51:39;;;;;;;28.98;11.20;;;;;;;17.27;100.00;99565.03;5015835;28;20049;-76
2023/05/31 05:54:05;;;;;;;16.08;12.07;;;;;;;17.46;100.00;99571.81;5030025;28;20408;-75
2023/05/31 05:56:31;;;;;;;23.45;12.57;;;;;;;17.63;100.00;99564.81;5027182;28;20037;-75
2023/05/31 05:58:56;;;;;;;18.52;11.90;;;;;;;17.83;100.00;99577.63;5023643;28;20120;-75
2023/05/31 06:01:23;;;;;;;28.50;13.85;;;;;;;17.93;99.01;99570.50;5023918;28;20128;-73
2023/05/31 06:03:49;;;;;;;19.40;12.65;;;;;;;18.03;97.56;99586.00;5019834;28;20089;-74
2023/05/31 06:06:16;;;;;;;32.05;17.17;;;;;;;17.90;98.85;99581.75;5024028;28;20032;-73
2023/05/31 06:08:43;;;;;;;22.88;16.30;;;;;;;18.08;98.65;99582.84;5024081;28;20389;-75
2023/05/31 06:11:08;;;;;;;25.15;15.93;;;;;;;18.22;97.18;99582.22;5029251;28;20037;-78
2023/05/31 06:13:34;;;;;;;26.70;15.57;;;;;;;18.29;97.24;99581.50;5033919;28;20036;-78
2023/05/31 06:15:59;;;;;;;18.40;12.13;;;;;;;18.53;96.36;99582.19;5033498;28;20032;-78
2023/05/31 06:18:25;;;;;;;15.85;9.48;;;;;;;18.40;93.78;99580.81;5028694;28;20037;-78
2023/05/31 06:20:50;;;;;;;11.55;7.60;;;;;;;18.47;92.35;99583.75;5021596;28;20033;-78
2023/05/31 06:23:16;;;;;;;9.32;6.75;;;;;;;18.36;89.37;99575.94;5017164;28;20025;-79
2023/05/31 06:25:41;;;;;;;12.73;7.00;;;;;;;18.26;87.94;99576.63;5022995;28;20040;-79
2023/05/31 06:28:07;;;;;;;9.50;7.32;;;;;;;18.45;88.54;99584.13;5018640;28;20061;-80
2023/05/31 06:30:32;;;;;;;12.68;6.85;;;;;;;18.58;87.49;99579.03;5023022;28;20033;-79
2023/05/31 06:32:58;;;;;;;10.30;6.32;;;;;;;18.86;86.53;99588.19;5012325;28;20087;-79
2023/05/31 06:35:23;;;;;;;25.48;9.48;;;;;;;18.63;87.35;99584.31;5022011;28;20026;-79
2023/05/31 06:37:51;;;;;;;11.90;6.72;;;;;;;18.37;88.47;99576.72;5015875;28;20033;-79
2023/05/31 06:40:17;;;;;;;21.98;9.30;;;;;;;18.45;90.59;99578.47;5013887;28;20087;-80
2023/05/31 06:42:43;;;;;;;13.77;8.32;;;;;;;18.51;89.82;99582.56;5023630;28;20033;-83
2023/05/31 06:45:09;;;;;;;18.98;8.38;;;;;;;18.79;90.14;99583.28;5026103;28;20049;-80
2023/05/31 06:47:34;;;;;;;12.55;8.63;;;;;;;18.89;89.26;99585.41;5027978;28;20485;-74
2023/05/31 06:50:00;;;;;;;20.05;9.77;;;;;;;18.78;88.36;99562.66;5025121;28;20036;-76
2023/05/31 06:52:25;;;;;;;16.88;8.00;;;;;;;19.02;86.13;99568.16;5027723;28;20505;-78
2023/05/31 06:54:51;;;;;;;13.75;8.43;;;;;;;18.84;87.43;99571.59;5021235;28;20039;-80
2023/05/31 06:57:17;;;;;;;12.98;7.47;;;;;;;19.11;86.72;99584.81;5013297;28;20056;-76
2023/05/31 06:59:42;;;;;;;12.65;8.55;;;;;;;19.20;85.80;99574.81;5024587;28;20033;-77
2023/05/31 07:02:09;;;;;;;9.52;8.00;;;;;;;19.14;85.85;99567.06;5026514;28;20034;-77
2023/05/31 07:04:34;;;;;;;10.93;7.47;;;;;;;19.24;85.50;99579.69;5030521;28;20037;-77
2023/05/31 07:07:00;;;;;;;11.90;7.75;;;;;;;19.08;85.02;99583.59;5027585;28;20033;-79
2023/05/31 07:09:25;;;;;;;19.17;8.95;;;;;;;19.22;86.27;99575.22;5028885;28;20437;-76
2023/05/31 07:11:51;;;;;;;14.63;8.73;;;;;;;19.36;84.17;99568.84;5020124;28;20061;-77
2023/05/31 07:14:16;;;;;;;10.48;7.90;;;;;;;19.80;83.69;99588.22;5025544;28;20041;-76
2023/05/31 07:16:42;;;;;;;14.80;8.20;;;;;;;19.78;84.01;99575.22;5025233;28;20037;-77
2023/05/31 07:19:07;;;;;;;14.13;7.68;;;;;;;19.93;82.93;99572.53;5024920;28;20037;-77
2023/05/31 07:21:33;;;;;;;10.63;8.02;;;;;;;19.93;81.72;99586.72;5020669;28;20033;-77
2023/05/31 07:23:59;;;;;;;9.65;8.13;;;;;;;19.89;81.14;99588.66;5019663;28;20021;-77
2023/05/31 07:26:25;;;;;;;12.15;7.30;;;;;;;19.93;81.52;99589.56;5024543;28;20018;-77
2023/05/31 07:28:53;;;;;;;8.43;6.55;;;;;;;19.71;80.64;99585.72;5023218;28;20038;-77
2023/05/31 07:31:20;;;;;;;11.63;7.20;;;;;;;19.76;80.83;99588.19;5021728;28;20057;-77
2023/05/31 07:33:45;;;;;;;11.57;7.80;;;;;;;19.81;81.55;99581.34;5015057;28;20537;-77
2023/05/31 07:36:11;;;;;;;9.27;6.45;;;;;;;19.81;79.49;99592.69;5024545;28;20022;-77
2023/05/31 07:38:36;;;;;;;16.85;7.03;;;;;;;20.09;79.14;99585.56;5023697;28;20033;-77
2023/05/31 07:41:02;;;;;;;15.80;7.78;;;;;;;20.40;80.02;99583.28;5013464;28;20056;-77
2023/05/31 07:43:29;;;;;;;13.23;8.45;;;;;;;20.30;77.41;99591.34;5019768;28;20037;-77
2023/05/31 07:45:55;;;;;;;9.02;6.80;;;;;;;20.29;77.66;99584.06;5024873;28;20096;-77
2023/05/31 07:48:20;;;;;;;9.32;6.90;;;;;;;20.33;76.75;99584.03;5020258;28;20168;-77
2023/05/31 07:50:47;;;;;;;15.35;7.07;;;;;;;20.42;76.92;99580.84;5023570;28;20496;-79
2023/05/31 07:53:13;;;;;;;20.35;7.13;;;;;;;20.52;75.81;99577.25;5017010;28;20069;-77
2023/05/31 07:55:38;;;;;;;18.73;9.18;;;;;;;20.45;77.35;99586.56;5017137;28;20093;-78
2023/05/31 07:58:04;;;;;;;14.25;7.00;;;;;;;20.40;75.49;99586.94;5022009;28;20044;-78
2023/05/31 08:00:31;;;;;;;13.77;7.85;;;;;;;20.61;75.64;99583.34;5028951;28;20049;-83
2023/05/31 08:02:56;;;;;;;13.18;8.70;;;;;;;20.66;75.63;99587.81;5025648;28;20029;-79
2023/05/31 08:05:22;;;;;;;13.52;9.27;;;;;;;20.72;74.36;99577.72;5025032;28;20033;-80
2023/05/31 08:07:48;;;;;;;14.93;8.82;;;;;;;20.83;74.40;99591.97;5013099;28;20109;-80
2023/05/31 08:10:17;;;;;;;20.67;8.88;;;;;;;20.95;73.80;99584.28;5022213;28;20109;-77
2023/05/31 08:12:43;;;;;;;8.35;6.60;;;;;;;20.94;73.03;99583.47;5020671;28;20021;-82
2023/05/31 08:15:10;;;;;;;8.00;6.05;;;;;;;21.23;73.29;99582.66;5028569;28;20029;-77
2023/05/31 08:17:35;;;;;;;8.60;6.43;;;;;;;21.45;72.79;99583.50;5022186;28;20091;-78
2023/05/31 08:20:03;;;;;;;9.95;6.70;;;;;;;21.44;71.62;99579.81;5016856;28;20037;-74
2023/05/31 08:22:29;;;;;;;8.20;6.10;;;;;;;21.40;69.42;99587.56;5025277;28;20022;-76
2023/05/31 08:24:54;;;;;;;8.65;6.22;;;;;;;21.34;70.34;99583.47;5014001;28;20028;-78
2023/05/31 08:27:20;;;;;;;13.85;7.30;;;;;;;21.40;71.08;99561.13;5028102;28;20484;-75
2023/05/31 08:29:45;;;;;;;7.05;6.30;;;;;;;21.66;70.00;99582.69;5027703;28;20155;-77
2023/05/31 08:32:11;;;;;;;9.30;6.70;;;;;;;21.71;68.39;99575.78;5011943;28;20030;-77
2023/05/31 08:34:36;;;;;;;7.45;6.60;;;;;;;21.97;68.83;99565.97;5012281;28;20048;-76
2023/05/31 08:37:02;;;;;;;10.57;5.60;;;;;;;22.13;66.63;99576.09;5012821;28;20481;-77
2023/05/31 08:39:28;;;;;;;8.45;5.82;;;;;;;22.43;64.66;99572.72;5017786;28;20104;-77
2023/05/31 08:42:02;;;;;;;9.85;6.38;;;;;;;22.54;65.87;99572.66;5025251;28;20037;-76
2023/05/31 08:44:31;;;;;;;16.38;5.72;;;;;;;22.74;65.48;99563.63;5023944;28;20569;-77
2023/05/31 08:47:26;;;;;;;6.13;5.43;;;;;;;23.00;65.33;99570.78;5021198;28;20033;-77
2023/05/31 08:49:54;;;;;;;10.32;6.78;;;;;;;23.08;63.39;99570.72;5024622;28;20064;-80
2023/05/31 08:52:21;;;;;;;11.88;6.07;;;;;;;23.33;62.51;99564.84;5026178;28;20045;-77
2023/05/31 08:54:48;;;;;;;10.55;6.13;;;;;;;23.31;62.73;99550.19;5020471;28;20072;-76
2023/05/31 08:57:14;;;;;;;8.85;5.75;;;;;;;23.34;62.23;99555.06;5025810;28;20124;-76
2023/05/31 08:59:39;;;;;;;10.57;6.15;;;;;;;23.53;62.36;99549.97;5028895;28;20121;-76
2023/05/31 09:02:07;;;;;;;13.68;7.65;;;;;;;23.47;62.03;99540.28;5030836;28;20028;-75
2023/05/31 09:04:33;;;;;;;11.27;6.47;;;;;;;23.92;62.18;99534.50;5030812;28;20087;-77
2023/05/31 09:07:00;;;;;;;19.83;9.15;;;;;;;24.34;61.90;99527.91;5031023;28;20485;-74
2023/05/31 09:09:25;;;;;;;13.43;7.10;;;;;;;24.91;60.05;99525.50;5030383;28;20104;-74
2023/05/31 09:11:51;;;;;;;9.40;6.32;;;;;;;24.93;58.01;99520.13;5029342;28;20112;-74
2023/05/31 09:14:16;;;;;;;15.55;6.75;;;;;;;25.06;57.17;99511.78;5030700;28;20021;-75
2023/05/31 09:16:42;;;;;;;12.98;6.65;;;;;;;25.40;56.12;99518.56;5030738;28;20032;-76
2023/05/31 09:19:08;;;;;;;50.70;12.35;;;;;;;25.45;56.33;99515.16;5030724;28;20080;-76
2023/05/31 09:21:41;;;;;;;10.52;7.03;;;;;;;25.56;54.30;99512.94;5030755;28;20025;-76
2023/05/31 09:24:07;;;;;;;12.95;7.22;;;;;;;25.54;54.56;99509.72;5029258;28;20512;-76
2023/05/31 09:26:33;;;;;;;59.67;12.93;;;;;;;25.68;56.07;99525.00;5028670;28;20059;-76
2023/05/31 09:28:59;;;;;;;8.85;5.88;;;;;;;26.00;55.87;99507.19;5029138;28;20049;-75
2023/05/31 09:31:27;;;;;;;7.53;6.55;;;;;;;25.71;53.98;99507.78;5023865;28;20053;-74
2023/05/31 09:33:54;;;;;;;14.02;6.88;;;;;;;25.53;54.54;99496.66;5028160;28;20026;-78
2023/05/31 09:36:42;;;;;;;11.07;7.43;;;;;;;25.33;55.03;99505.97;5027877;28;20416;-77
2023/05/31 09:39:08;;;;;;;10.15;7.03;;;;;;;24.91;56.69;99497.69;5029275;28;20037;-78
2023/05/31 09:41:34;;;;;;;10.35;6.60;;;;;;;25.07;55.93;99501.94;5028731;28;20043;-77
2023/05/31 09:44:00;;;;;;;8.63;6.50;;;;;;;25.53;54.72;99485.22;5028275;28;20495;-76
2023/05/31 09:46:26;;;;;;;9.48;6.28;;;;;;;25.64;54.29;99490.72;5019566;28;20030;-78
2023/05/31 09:49:04;;;;;;;8.93;6.63;;;;;;;25.84;53.97;99499.34;5014307;28;20026;-78
2023/05/31 09:51:34;;;;;;;10.00;6.78;;;;;;;25.74;52.93;99477.44;5016656;28;20373;-77
2023/05/31 09:54:06;;;;;;;8.07;6.65;;;;;;;25.76;52.70;99486.41;5025322;28;20040;-78
2023/05/31 09:56:36;;;;;;;8.15;6.95;;;;;;;25.95;51.33;99476.19;5031021;28;20041;-78
2023/05/31 09:59:03;;;;;;;13.57;7.05;;;;;;;25.94;50.25;99483.19;5029532;28;20037;-76
2023/05/31 10:01:30;;;;;;;11.20;7.20;;;;;;;26.24;51.02;99477.69;5028336;28;20037;-75
2023/05/31 10:03:59;;;;;;;8.85;6.75;;;;;;;26.27;49.16;99479.66;5024723;28;20037;-76
2023/05/31 10:06:24;;;;;;;10.25;7.25;;;;;;;26.20;50.65;99481.44;5025003;28;20063;-82
2023/05/31 10:08:50;;;;;;;13.80;7.03;;;;;;;26.49;49.93;99486.53;5029583;28;20516;-77
2023/05/31 10:11:19;;;;;;;12.38;7.63;;;;;;;26.26;49.42;99473.13;5029324;28;20056;-79
2023/05/31 10:13:49;;;;;;;9.65;6.03;;;;;;;26.35;51.63;99470.44;5033629;28;20490;-78
2023/05/31 10:16:17;;;;;;;9.02;6.03;;;;;;;26.36;48.11;99465.53;5030289;28;20478;-75
2023/05/31 10:18:50;;;;;;;12.90;5.90;;;;;;;26.32;46.18;99479.16;5032188;28;20374;-75
2023/05/31 10:21:27;;;;;;;16.52;5.15;;;;;;;26.41;46.42;99472.81;5024026;28;20435;-74
2023/05/31 10:24:31;;;;;;;10.50;5.28;;;;;;;26.69;47.60;99470.50;5021692;28;20049;-75
2023/05/31 10:27:11;;;;;;;10.48;6.18;;;;;;;26.79;45.52;99452.22;5018408;28;20116;-75
2023/05/31 10:29:43;;;;;;;6.72;5.63;;;;;;;26.86;42.60;99452.06;5020452;28;20036;-75
2023/05/31 10:32:15;;;;;;;8.52;5.80;;;;;;;26.65;44.49;99455.44;5030701;28;20033;-75
2023/05/31 10:34:41;;;;;;;11.13;6.72;;;;;;;26.55;45.67;99460.19;5026156;28;20116;-76
2023/05/31 10:37:07;;;;;;;10.73;5.93;;;;;;;26.66;46.18;99448.47;5032188;28;20029;-75
2023/05/31 10:40:09;;;;;;;11.15;6.30;;;;;;;26.83;45.93;99452.16;5032372;28;20029;-75
2023/05/31 10:42:49;;;;;;;9.55;6.32;;;;;;;26.99;44.21;99442.75;5018724;28;20075;-75
2023/05/31 10:45:14;;;;;;;;;;;;;;;27.22;41.62;99438.06;5031605;28;20079;-75
2023/05/31 10:47:46;;;;;;;11.87;6.60;;;;;;;27.09;42.48;99440.88;5032593;28;19913;-75
2023/05/31 10:50:20;;;;;;;10.45;6.78;;;;;;;26.91;42.17;99422.06;5032122;28;20988;-75
2023/05/31 10:52:52;;;;;;;8.50;6.00;;;;;;;27.34;42.82;99437.34;5029506;28;20069;-75
2023/05/31 10:55:19;;;;;;;9.60;5.72;;;;;;;26.99;42.52;99425.53;5025065;28;20025;-76
2023/05/31 10:57:50;;;;;;;8.82;5.88;;;;;;;27.01;41.09;99417.28;5032093;28;20026;-76
2023/05/31 11:00:19;;;;;;;7.93;6.13;;;;;;;27.32;42.78;99414.00;5027872;28;20496;-76
2023/05/31 11:02:54;;;;;;;9.48;6.03;;;;;;;27.49;42.49;99411.88;5024914;28;20034;-75
2023/05/31 11:05:27;;;;;;;9.15;6.40;;;;;;;27.51;43.06;99406.47;5021454;28;20032;-75
2023/05/31 11:07:54;;;;;;;10.80;6.15;;;;;;;27.61;41.84;99396.78;5020132;28;20026;-75
2023/05/31 11:10:34;;;;;;;11.95;5.93;;;;;;;27.58;39.16;99397.69;5024992;28;20032;-75
2023/05/31 11:13:03;;;;;;;9.55;6.20;;;;;;;27.58;38.52;99397.69;5031857;28;20492;-75
2023/05/31 11:15:42;;;;;;;;;;;;;;;27.45;41.14;99400.53;5030343;28;20092;-76
2023/05/31 11:18:09;;;;;;;12.50;6.95;;;;;;;27.54;41.60;99397.00;5030064;28;19956;-76
2023/05/31 11:20:36;;;;;;;12.82;7.20;;;;;;;27.93;40.23;99397.09;5030593;28;20575;-75